Latest Weather Observations for Southern Cross Airport

IDW60801

Issued at 3:03 pm WST Monday 30 March 2015 (issued every 30 minutes, with the page automatically refreshed every 10 minutes)

About weather observations | Map of weather stations | Latest weather observations for WA | Other Formats
Station Details ID: 012320 Name: SOUTHERN CROSS AIRFIELD Lat: -31.24 Lon: 119.36 Height: 347.4 m
Data from the previous 72 hours. | See also: Recent months at Southern Cross Airport
Date/Time
WST
Temp
°C
App
Temp
°C
Dew
Point
Rel
Hum
%
Delta-T
°C
Wind Press
QNH
hPa
Press
MSL
hPa
Rain
since 9 am
mm
Dir
 
Spd
km/h
Gust
km/h
Spd
kts
Gust
kts
30/03:00pm 31.9 27.5 7.5 22 13.6 N 20 30 11 16 1015.4 1013.8 0.0
30/02:30pm 31.9 27.1 7.5 22 13.6 NNW 22 30 12 16 1015.4 1013.8 0.0
30/02:00pm 31.7 27.4 8.0 23 13.3 N 20 32 11 17 1015.5 1013.9 0.0
30/01:30pm 32.5 29.4 8.7 23 13.5 N 15 24 8 13 1016.0 1014.4 0.0
30/01:00pm 31.8 28.9 8.1 23 13.3 N 13 30 7 16 1016.3 1014.7 0.0
30/12:30pm 31.3 27.0 7.7 23 13.1 N 20 32 11 17 1016.9 1015.3 0.0
30/12:00pm 31.5 27.4 7.9 23 13.2 N 19 30 10 16 1017.4 1015.8 0.0
30/11:30am 31.5 27.5 9.1 25 12.8 N 20 26 11 14 1017.9 1016.3 0.0
30/11:00am 29.7 26.0 10.3 30 11.2 NNE 20 28 11 15 1018.4 1016.8 0.0
30/10:30am 28.7 24.9 9.9 31 10.7 NNE 20 28 11 15 1018.9 1017.3 0.0
30/10:00am 27.1 23.5 9.9 34 9.7 N 19 24 10 13 1019.3 1017.7 0.0
30/09:30am 25.7 21.9 9.9 37 8.9 NNE 20 26 11 14 1019.6 1018.0 0.0
30/09:00am 25.0 21.4 10.5 40 8.2 NNE 20 28 11 15 1019.7 1018.1 0.0
30/08:30am 23.4 19.7 10.1 43 7.4 NNE 20 28 11 15 1019.8 1018.2 0.0
30/08:00am 22.4 18.8 9.9 45 6.9 NE 19 26 10 14 1019.7 1018.1 0.0
30/07:30am 20.5 18.8 10.0 51 5.7 N 9 15 5 8 1019.6 1018.0 0.0
30/07:00am 18.6 16.7 9.1 54 5.0 ENE 9 13 5 7 1019.4 1017.8 0.0
30/06:30am 17.5 16.1 8.9 57 4.5 ENE 6 7 3 4 1019.2 1017.6 0.0
30/06:00am 16.7 13.9 8.4 58 4.3 ENE 13 13 7 7 1019.2 1017.6 0.0
30/05:30am 17.7 15.7 8.6 55 4.8 E 9 11 5 6 1018.8 1017.2 0.0
30/05:00am 17.9 16.2 8.5 54 4.9 E 7 9 4 5 1018.5 1016.9 0.0
30/04:30am 18.0 17.2 8.3 53 5.1 E 2 9 1 5 1018.2 1016.6 0.0
30/04:00am 18.0 17.5 8.0 52 5.2 CALM 0 6 0 3 1017.9 1016.3 0.0
30/03:30am 18.3 16.1 8.0 51 5.4 NE 9 11 5 6 1017.8 1016.1 0.0
30/03:00am 18.4 16.3 8.1 51 5.4 NE 9 13 5 7 1017.9 1016.3 0.0
30/02:30am 17.9 16.0 7.6 51 5.3 NNE 7 13 4 7 1017.9 1016.3 0.0
30/02:00am 18.4 16.3 8.1 51 5.4 ENE 9 15 5 8 1018.3 1016.7 0.0
30/01:30am 18.9 16.7 7.7 48 5.8 NNE 9 11 5 6 1018.7 1017.1 0.0
30/01:00am 19.7 16.7 7.8 46 6.2 NE 13 19 7 10 1018.8 1017.2 0.0
30/12:30am 20.1 16.3 7.5 44 6.6 ENE 17 20 9 11 1019.0 1017.4 0.0
30/12:00am 20.8 16.9 7.1 41 7.1 ENE 17 22 9 12 1019.1 1017.5 0.0
 
Date/Time
WST
Temp
°C
App
Temp
°C
Dew
Point
Rel
Hum
%
Delta-T
°C
Wind Press
QNH
hPa
Press
MSL
hPa
Rain
since 9 am
mm
Dir
 
Spd
km/h
Gust
km/h
Spd
kts
Gust
kts
29/11:30pm 21.2 17.3 7.1 40 7.3 ENE 17 20 9 11 1019.1 1017.5 0.0
29/11:00pm 21.2 17.2 6.7 39 7.5 ENE 17 20 9 11 1019.1 1017.5 0.0
29/10:30pm 21.6 17.1 6.3 37 7.9 ENE 19 24 10 13 1019.4 1017.8 0.0
29/10:00pm 22.1 17.6 5.9 35 8.3 ENE 19 22 10 12 1019.8 1018.2 0.0
29/09:30pm 22.8 18.6 5.7 33 8.7 ENE 17 22 9 12 1019.6 1018.0 0.0
29/09:00pm 23.3 19.0 5.2 31 9.2 ENE 17 22 9 12 1019.8 1018.2 0.0
29/08:30pm 24.0 20.0 4.9 29 9.7 E 15 22 8 12 1019.7 1018.1 0.0
29/08:00pm 24.3 20.0 5.1 29 9.8 E 17 22 9 12 1019.6 1018.0 0.0
29/07:30pm 24.9 21.1 5.7 29 10.0 E 15 19 8 10 1019.5 1017.9 0.0
29/07:00pm 24.1 21.5 5.9 31 9.4 E 9 13 5 7 1019.2 1017.6 0.0
29/06:30pm 25.9 23.4 4.9 26 10.8 E 7 9 4 5 1019.0 1017.4 0.0
29/06:00pm 27.0 24.6 5.3 25 11.3 NNE 7 9 4 5 1019.0 1017.4 0.0
29/05:30pm 28.3 26.0 4.6 22 12.3 N 6 9 3 5 1018.9 1017.3 0.0
29/05:00pm 28.7 25.7 4.2 21 12.7 E 9 15 5 8 1018.8 1017.2 0.0
29/04:30pm 29.2 25.4 3.9 20 13.1 NE 13 20 7 11 1018.9 1017.3 0.0
29/04:00pm 28.8 26.2 4.3 21 12.7 W 7 11 4 6 1018.7 1017.1 0.0
29/03:30pm 28.6 24.3 3.5 20 12.8 N 15 24 8 13 1018.7 1017.1 0.0
29/03:00pm 28.6 25.0 4.8 22 12.4 E 13 19 7 10 1018.9 1017.3 0.0
29/02:30pm 28.3 25.6 5.8 24 11.9 SE 9 17 5 9 1019.1 1017.5 0.0
29/02:00pm 28.2 25.6 6.3 25 11.7 SSE 9 19 5 10 1019.2 1017.6 0.0
29/01:30pm 27.9 24.3 6.6 26 11.4 ESE 15 20 8 11 1019.4 1017.8 0.0
29/01:00pm 27.7 25.6 6.5 26 11.3 E 7 15 4 8 1019.8 1018.2 0.0
29/12:30pm 26.9 23.6 6.3 27 10.9 NE 13 32 7 17 1020.4 1018.9 0.0
29/12:00pm 26.4 23.3 7.4 30 10.2 NE 13 20 7 11 1021.1 1019.5 0.0
29/11:30am 26.3 23.1 8.3 32 9.9 NE 15 26 8 14 1021.4 1019.8 0.0
29/11:00am 25.4 20.6 8.8 35 9.1 N 24 30 13 16 1021.9 1020.3 0.0
29/10:30am 24.8 20.9 10.7 41 8.0 NNE 22 30 12 16 1022.4 1020.8 0.0
29/10:00am 23.2 18.9 10.6 45 7.0 NNE 24 32 13 17 1022.7 1021.1 0.0
29/09:30am 22.4 18.7 11.5 50 6.2 NNE 22 30 12 16 1022.8 1021.2 0.0
29/09:00am 21.5 18.4 11.5 53 5.6 NNE 19 28 10 15 1022.8 1021.2 0.0
29/08:30am 19.5 18.5 12.3 63 4.1 N 9 11 5 6 1022.9 1021.4 0.0
29/08:00am 18.0 17.1 11.3 65 3.7 E 7 11 4 6 1022.7 1021.1 0.0
29/07:30am 16.6 15.9 11.3 71 2.9 ESE 6 9 3 5 1022.4 1020.8 0.0
29/07:00am 14.9 13.6 11.1 78 2.1 SE 9 11 5 6 1022.1 1020.5 0.0
29/06:30am 13.9 12.4 10.5 80 1.8 SE 9 11 5 6 1021.9 1020.3 0.0
29/06:00am 14.0 12.1 10.6 80 1.8 SE 11 13 6 7 1021.7 1020.1 0.0
29/05:30am 14.1 12.1 10.3 78 2.0 SE 11 13 6 7 1021.4 1019.8 0.0
29/05:00am 14.6 12.7 10.4 76 2.2 ESE 11 13 6 7 1021.2 1019.6 0.0
29/04:30am 15.0 13.1 10.4 74 2.5 SE 11 13 6 7 1020.8 1019.2 0.0
29/04:00am 15.1 12.8 10.5 74 2.5 SSE 13 13 7 7 1020.5 1019.0 0.0
29/03:30am 16.4 14.4 10.3 67 3.3 E 11 17 6 9 1020.8 1019.2 0.0
29/03:00am 16.5 14.1 10.1 66 3.4 SE 13 15 7 8 1020.5 1019.0 0.0
29/02:30am 16.7 15.1 10.1 65 3.5 SE 9 13 5 7 1020.3 1018.8 0.0
29/02:00am 16.5 14.8 9.9 65 3.5 SE 9 13 5 7 1020.3 1018.8 0.0
29/01:30am 16.5 13.9 9.4 63 3.8 ESE 13 17 7 9 1020.2 1018.6 0.0
29/01:00am 16.8 15.0 9.5 62 3.9 SE 9 11 5 6 1020.3 1018.8 0.0
29/12:30am 17.1 15.6 9.0 59 4.3 SE 7 11 4 6 1020.4 1018.9 0.0
29/12:00am 18.1 15.0 8.9 55 4.9 SE 15 20 8 11 1020.2 1018.6 0.0
 
Date/Time
WST
Temp
°C
App
Temp
°C
Dew
Point
Rel
Hum
%
Delta-T
°C
Wind Press
QNH
hPa
Press
MSL
hPa
Rain
since 9 am
mm
Dir
 
Spd
km/h
Gust
km/h
Spd
kts
Gust
kts
28/11:30pm 17.7 16.1 10.3 62 4.0 SSE 9 17 5 9 1020.1 1018.5 0.0
28/11:00pm 18.2 17.1 10.1 59 4.4 SSW 6 9 3 5 1020.0 1018.4 0.0
28/10:30pm 18.7 17.0 10.0 57 4.7 S 9 11 5 6 1020.2 1018.6 0.0
28/10:00pm 18.2 16.8 11.0 63 4.0 SSE 9 11 5 6 1020.3 1018.8 0.0
28/09:30pm 18.2 17.0 11.7 66 3.6 SSW 9 11 5 6 1020.2 1018.6 0.0
28/09:00pm 18.9 19.4 11.7 63 4.0 CALM 0 6 0 3 1020.2 1018.6 0.0
28/08:30pm 20.2 20.4 11.9 59 4.7 SE 2 7 1 4 1020.0 1018.4 0.0
28/08:00pm 20.6 20.6 11.2 55 5.2 SSE 2 6 1 3 1019.8 1018.2 0.0
28/07:30pm 22.3 21.2 9.8 45 6.9 SE 6 7 3 4 1019.4 1017.8 0.0
28/07:00pm 22.9 21.3 8.6 40 7.7 E 7 7 4 4 1019.0 1017.4 0.0
28/06:30pm 24.1 22.2 7.7 35 8.8 ESE 7 9 4 5 1018.6 1017.0 0.0
28/06:00pm 25.2 22.2 7.8 33 9.4 SE 13 17 7 9 1018.4 1016.8 0.0
28/05:30pm 26.0 23.2 8.5 33 9.6 SSE 13 17 7 9 1018.2 1016.6 0.0
28/05:00pm 26.2 23.8 6.8 29 10.3 SE 9 15 5 8 1018.1 1016.5 0.0
28/04:30pm 26.3 24.1 7.8 31 10.0 S 9 17 5 9 1018.0 1016.4 0.0
28/04:00pm 26.0 23.8 8.0 32 9.8 SE 9 15 5 8 1018.0 1016.4 0.0
28/03:30pm 26.2 23.2 7.7 31 10.0 SE 13 19 7 10 1018.0 1016.4 0.0
28/03:00pm 25.9 23.7 8.0 32 9.7 S 9 17 5 9 1018.1 1016.5 0.0
28/02:30pm 25.9 23.6 7.5 31 9.9 ENE 9 15 5 8 1018.3 1016.7 0.0
28/02:00pm 25.5 23.6 8.9 35 9.1 SE 9 17 5 9 1018.5 1016.9 0.0
28/01:30pm 25.0 23.2 9.3 37 8.7 SE 9 17 5 9 1018.7 1017.1 0.0
28/01:00pm 24.4 23.2 10.3 41 7.9 NW 7 15 4 8 1019.1 1017.5 0.0
28/12:30pm 23.6 22.9 13.2 52 6.1 WSW 9 15 5 8 1019.5 1017.9 0.0
28/12:00pm 23.4 22.1 13.6 54 5.8 SW 13 22 7 12 1019.8 1018.2 0.0
28/11:30am 22.5 20.7 12.2 52 5.9 SE 13 20 7 11 1020.4 1018.9 0.0
28/11:00am 20.7 19.5 12.9 61 4.5 SE 11 17 6 9 1020.8 1019.2 0.0
28/10:30am 19.6 19.4 13.5 68 3.5 SSE 7 13 4 7 1021.1 1019.5 0.0
28/10:00am 18.3 18.2 13.4 73 2.8 ESE 6 13 3 7 1021.3 1019.7 0.0
28/09:30am 16.2 16.0 13.5 84 1.5 SSE 7 9 4 5 1021.4 1019.8 0.0
28/09:00am 15.1 14.4 13.3 89 1.0 E 9 13 5 7 1021.4 1019.8 5.8
28/08:30am 14.5 14.2 13.4 93 0.6 ESE 7 11 4 6 1021.2 1019.6 5.8
28/08:00am 14.0 13.6 13.1 94 0.5 SSE 7 9 4 5 1021.1 1019.5 5.8
28/07:30am 13.6 13.1 12.8 95 0.4 ESE 7 9 4 5 1020.9 1019.3 5.8
28/07:00am 13.4 13.1 12.6 95 0.4 E 6 7 3 4 1020.4 1018.9 5.8
28/06:30am 13.2 12.6 12.4 95 0.4 ENE 7 9 4 5 1020.1 1018.5 5.8
28/06:00am 13.2 12.6 12.4 95 0.4 ESE 7 9 4 5 1020.0 1018.4 5.8
28/05:30am 12.9 11.8 12.1 95 0.4 E 9 13 5 7 1019.8 1018.2 5.8
28/05:00am 13.0 11.6 12.1 94 0.5 E 11 13 6 7 1019.4 1017.8 5.8
28/04:30am 13.3 11.6 12.4 94 0.5 E 13 17 7 9 1019.1 1017.5 5.8
28/04:00am 13.4 12.4 12.3 93 0.6 E 9 13 5 7 1019.0 1017.4 5.8
28/03:30am 13.5 12.5 12.2 92 0.7 ESE 9 13 5 7 1018.9 1017.3 5.8
28/03:00am 13.9 13.0 12.5 91 0.8 ESE 9 9 5 5 1018.7 1017.1 5.8
28/02:30am 14.1 13.2 12.5 90 0.9 ESE 9 13 5 7 1018.8 1017.2 5.8
28/02:00am 14.3 13.9 12.5 89 1.0 SE 6 11 3 6 1018.9 1017.3 5.8
28/01:30am 14.4 13.9 12.6 89 1.0 E 7 9 4 5 1019.0 1017.4 5.8
28/01:00am 14.3 13.7 12.3 88 1.1 E 7 9 4 5 1019.2 1017.6 5.8
28/12:30am 14.6 13.7 12.5 87 1.2 ESE 9 13 5 7 1019.4 1017.8 5.8
28/12:00am 14.8 14.3 12.5 86 1.3 E 7 9 4 5 1019.5 1017.9 5.8
 
Date/Time
WST
Temp
°C
App
Temp
°C
Dew
Point
Rel
Hum
%
Delta-T
°C
Wind Press
QNH
hPa
Press
MSL
hPa
Rain
since 9 am
mm
Dir
 
Spd
km/h
Gust
km/h
Spd
kts
Gust
kts
27/11:30pm 15.2 14.0 12.7 85 1.4 ENE 11 15 6 8 1019.6 1018.0 5.8
27/11:00pm 15.6 14.4 12.7 83 1.6 E 11 15 6 8 1019.8 1018.2 5.8
27/10:30pm 15.9 14.3 12.8 82 1.7 E 13 19 7 10 1020.0 1018.4 5.8
27/10:00pm 16.4 15.2 12.9 80 2.0 ESE 11 15 6 8 1020.2 1018.6 5.8
27/09:30pm 17.0 15.4 12.9 77 2.3 E 13 19 7 10 1020.1 1018.5 5.8
27/09:00pm 17.4 15.5 12.9 75 2.5 ENE 15 20 8 11 1020.1 1018.5 5.8
27/08:30pm 17.8 15.5 12.9 73 2.8 ENE 17 20 9 11 1019.8 1018.2 5.8
27/08:00pm 18.4 16.7 12.6 69 3.3 ENE 13 17 7 9 1019.9 1018.3 5.8
27/07:30pm 19.0 17.0 12.7 67 3.6 ENE 15 20 8 11 1019.6 1018.0 5.8
27/07:00pm 19.4 17.6 12.2 63 4.1 ENE 13 17 7 9 1019.2 1017.6 5.8
27/06:30pm 20.0 18.5 12.0 60 4.5 E 11 15 6 8 1018.8 1017.2 5.8
27/06:00pm 20.7 19.1 11.6 56 5.1 ESE 11 15 6 8 1018.7 1017.1 5.8
27/05:30pm 21.4 19.8 11.4 53 5.6 ESE 11 17 6 9 1018.4 1016.8 5.8
27/05:00pm 21.5 19.3 10.9 51 5.9 E 13 17 7 9 1018.4 1016.8 5.8
27/04:30pm 21.7 19.8 11.7 53 5.7 ENE 13 17 7 9 1018.4 1016.8 5.8
27/04:00pm 21.7 19.3 11.4 52 5.8 NE 15 19 8 10 1018.6 1017.0 5.8
27/03:30pm 21.6 18.9 11.6 53 5.7 NE 17 24 9 13 1018.9 1017.3 5.8

Other Formats:

Comma delimited format used in spreadsheet applications
http://www.bom.gov.au/fwo/IDW60801/IDW60801.95634.axf

JavaScript Object Notation format (JSON) in row-major order
http://www.bom.gov.au/fwo/IDW60801/IDW60801.95634.json